createdAt,value
2023-05-12T00:01:02.882Z,52.35
2023-05-12T00:03:29.290Z,52.40
2023-05-12T00:05:55.725Z,52.12
2023-05-12T00:08:22.136Z,52.35
2023-05-12T00:10:48.461Z,52.63
2023-05-12T00:13:14.979Z,52.55
2023-05-12T00:15:41.339Z,52.46
2023-05-12T00:18:07.919Z,52.71
2023-05-12T00:20:34.383Z,52.56
2023-05-12T00:23:00.657Z,53.02
2023-05-12T00:25:27.014Z,52.87
2023-05-12T00:27:53.276Z,52.85
2023-05-12T00:30:20.508Z,52.79
2023-05-12T00:32:46.952Z,52.64
2023-05-12T00:35:13.520Z,52.45
2023-05-12T00:37:39.748Z,52.48
2023-05-12T00:40:06.805Z,52.72
2023-05-12T00:42:34.386Z,53.10
2023-05-12T00:45:01.209Z,53.33
2023-05-12T00:47:27.958Z,53.14
2023-05-12T00:49:54.420Z,53.43
2023-05-12T00:52:20.923Z,53.10
2023-05-12T00:54:47.944Z,52.81
2023-05-12T00:57:14.437Z,53.00
2023-05-12T00:59:40.768Z,53.12
2023-05-12T01:02:07.891Z,52.89
2023-05-12T01:04:35.128Z,53.14
2023-05-12T01:07:11.730Z,53.02
2023-05-12T01:09:38.144Z,52.87
2023-05-12T01:12:04.861Z,52.72
2023-05-12T01:14:33.459Z,52.91
2023-05-12T01:17:02.889Z,53.11
2023-05-12T01:19:48.412Z,53.22
2023-05-12T01:22:16.492Z,53.19
2023-05-12T01:24:57.031Z,53.32
2023-05-12T01:27:26.683Z,53.69
2023-05-12T01:29:57.642Z,53.56
2023-05-12T01:32:24.145Z,53.58
2023-05-12T01:34:51.529Z,53.60
2023-05-12T01:37:18.305Z,53.39
2023-05-12T01:39:44.658Z,53.69
2023-05-12T01:42:16.708Z,54.32
2023-05-12T01:44:43.247Z,54.51
2023-05-12T01:47:10.606Z,55.38
2023-05-12T01:49:38.149Z,55.41
2023-05-12T01:52:06.226Z,55.30
2023-05-12T01:54:32.934Z,55.14
2023-05-12T01:56:59.257Z,55.18
2023-05-12T01:59:26.022Z,55.10
2023-05-12T02:01:52.717Z,54.86
2023-05-12T02:04:24.496Z,55.10
2023-05-12T02:06:51.497Z,54.74
2023-05-12T02:09:17.925Z,54.98
2023-05-12T02:11:44.406Z,55.06
2023-05-12T02:14:11.106Z,54.95
2023-05-12T02:16:37.745Z,55.29
2023-05-12T02:19:04.347Z,55.16
2023-05-12T02:21:32.119Z,55.21
2023-05-12T02:23:58.535Z,55.04
2023-05-12T02:26:24.881Z,54.91
2023-05-12T02:28:51.601Z,54.84
2023-05-12T02:31:18.285Z,55.26
2023-05-12T02:33:44.689Z,55.15
2023-05-12T02:36:11.173Z,55.28
2023-05-12T02:38:39.234Z,55.42
2023-05-12T02:41:06.129Z,55.92
2023-05-12T02:43:32.738Z,56.02
2023-05-12T02:45:59.069Z,55.88
2023-05-12T02:48:26.012Z,55.87
2023-05-12T02:50:52.681Z,55.95
2023-05-12T02:53:19.117Z,55.84
2023-05-12T02:55:45.402Z,55.78
2023-05-12T02:58:11.719Z,55.97
2023-05-12T03:00:38.012Z,56.39
2023-05-12T03:03:04.379Z,56.32
2023-05-12T03:05:30.807Z,56.21
2023-05-12T03:07:58.327Z,56.43
2023-05-12T03:10:25.065Z,56.32
2023-05-12T03:12:52.525Z,56.54
2023-05-12T03:15:18.798Z,56.75
2023-05-12T03:17:45.146Z,56.46
2023-05-12T03:20:11.656Z,56.62
2023-05-12T03:22:38.125Z,56.56
2023-05-12T03:25:05.989Z,56.46
2023-05-12T03:27:32.402Z,56.36
2023-05-12T03:30:01.542Z,56.96
2023-05-12T03:32:28.939Z,56.98
2023-05-12T03:34:55.384Z,56.75
2023-05-12T03:37:22.082Z,56.75
2023-05-12T03:39:48.603Z,56.90
2023-05-12T03:42:15.202Z,56.91
2023-05-12T03:44:42.004Z,56.92
2023-05-12T03:47:08.601Z,57.03
2023-05-12T03:49:35.965Z,56.65
2023-05-12T03:52:02.329Z,56.84
2023-05-12T03:54:28.669Z,56.60
2023-05-12T03:56:55.243Z,56.85
2023-05-12T03:59:21.823Z,57.22
2023-05-12T04:01:48.309Z,56.83
2023-05-12T04:04:14.686Z,56.82
2023-05-12T04:06:41.050Z,56.92
2023-05-12T04:09:07.293Z,56.93
2023-05-12T04:11:36.199Z,56.81
2023-05-12T04:14:03.437Z,56.90
2023-05-12T04:16:29.785Z,56.46
2023-05-12T04:18:58.222Z,56.55
2023-05-12T04:21:24.637Z,56.65
2023-05-12T04:23:54.513Z,56.69
2023-05-12T04:26:23.548Z,56.68
2023-05-12T04:28:49.909Z,57.14
2023-05-12T04:31:16.635Z,57.09
2023-05-12T04:33:43.128Z,56.73
2023-05-12T04:36:09.923Z,56.73
2023-05-12T04:38:36.756Z,56.70
2023-05-12T04:41:03.413Z,56.93
2023-05-12T04:46:00.778Z,56.79
2023-05-12T04:48:28.470Z,56.87
2023-05-12T04:50:59.182Z,56.64
2023-05-12T04:53:26.523Z,56.39
2023-05-12T04:55:52.902Z,56.50
2023-05-12T04:58:19.264Z,56.66
2023-05-12T05:00:46.239Z,56.42
2023-05-12T05:03:12.660Z,56.07
2023-05-12T05:05:38.981Z,55.94
2023-05-12T05:08:05.400Z,55.90
2023-05-12T05:10:34.604Z,55.61
2023-05-12T05:13:00.864Z,55.84
2023-05-12T05:15:27.222Z,55.12
2023-05-12T05:17:53.801Z,54.86
2023-05-12T05:20:27.612Z,54.74
2023-05-12T05:22:55.277Z,54.22
2023-05-12T05:25:21.755Z,53.95
2023-05-12T05:27:48.777Z,53.37
2023-05-12T05:30:17.479Z,53.18
2023-05-12T05:32:46.256Z,52.79
2023-05-12T05:35:12.762Z,52.87
2023-05-12T05:37:46.696Z,52.92
2023-05-12T05:40:13.811Z,52.40
2023-05-12T05:42:40.213Z,52.48
2023-05-12T05:45:07.265Z,52.07
2023-05-12T05:47:34.089Z,51.58
2023-05-12T05:50:00.526Z,51.78
2023-05-12T05:52:27.021Z,51.62
2023-05-12T05:54:53.357Z,51.17
2023-05-12T05:57:21.062Z,50.72
2023-05-12T05:59:47.434Z,50.51
2023-05-12T06:02:15.810Z,50.11
2023-05-12T06:04:42.202Z,50.23
2023-05-12T06:07:08.529Z,49.27
2023-05-12T06:09:34.839Z,48.86
2023-05-12T06:12:01.101Z,48.85
2023-05-12T06:14:27.408Z,48.54
2023-05-12T06:16:54.849Z,48.49
2023-05-12T06:19:23.397Z,48.21
2023-05-12T06:21:51.921Z,47.91
2023-05-12T06:24:18.303Z,47.53
2023-05-12T06:26:44.780Z,47.07
2023-05-12T06:29:11.028Z,46.39
2023-05-12T06:31:37.439Z,45.97
2023-05-12T06:34:03.821Z,46.25
2023-05-12T06:36:30.181Z,45.88
2023-05-12T06:38:56.645Z,45.83
2023-05-12T06:41:24.328Z,45.74
2023-05-12T06:43:51.507Z,45.21
2023-05-12T06:46:20.273Z,44.70
2023-05-12T06:48:46.764Z,44.32
2023-05-12T06:51:13.294Z,44.01
2023-05-12T06:53:40.692Z,43.77
2023-05-12T06:56:07.975Z,43.24
2023-05-12T06:58:34.318Z,42.41
2023-05-12T07:01:00.584Z,42.55
2023-05-12T07:03:26.896Z,42.93
2023-05-12T07:05:53.336Z,42.40
2023-05-12T07:08:19.734Z,41.99
2023-05-12T07:10:46.206Z,41.89
2023-05-12T07:13:12.628Z,42.14
2023-05-12T07:15:38.961Z,41.31
2023-05-12T07:18:05.592Z,41.29
2023-05-12T07:20:32.033Z,40.82
2023-05-12T07:22:58.384Z,40.27
2023-05-12T07:25:24.795Z,40.33
2023-05-12T07:27:51.232Z,40.34
2023-05-12T07:30:17.626Z,40.13
2023-05-12T07:32:44.001Z,40.06
2023-05-12T07:35:10.324Z,39.37
2023-05-12T07:37:36.736Z,39.07
2023-05-12T07:40:04.012Z,38.47
2023-05-12T07:42:30.331Z,37.82
2023-05-12T07:44:56.630Z,37.79
2023-05-12T07:47:22.876Z,37.74
2023-05-12T07:49:49.120Z,36.96
2023-05-12T07:52:15.417Z,36.32
2023-05-12T07:54:43.279Z,35.89
2023-05-12T07:57:12.084Z,36.25
2023-05-12T07:59:38.387Z,35.72
2023-05-12T08:02:04.942Z,35.18
2023-05-12T08:04:31.311Z,34.73
2023-05-12T08:06:57.634Z,34.05
2023-05-12T08:09:23.947Z,33.60
2023-05-12T08:11:51.543Z,33.88
2023-05-12T08:14:18.217Z,33.93
2023-05-12T08:16:45.746Z,33.01
2023-05-12T08:19:13.226Z,32.86
2023-05-12T08:21:39.867Z,33.12
2023-05-12T08:24:06.260Z,33.19
2023-05-12T08:26:32.546Z,32.53
2023-05-12T08:29:00.018Z,32.23
2023-05-12T08:31:26.731Z,31.51
2023-05-12T08:34:09.106Z,31.20
2023-05-12T08:36:37.189Z,30.80
2023-05-12T08:39:03.643Z,30.63
2023-05-12T08:41:42.944Z,31.17
2023-05-12T08:44:10.821Z,30.82
2023-05-12T08:46:37.956Z,31.13
2023-05-12T08:49:05.784Z,30.34
2023-05-12T08:51:32.558Z,30.37
2023-05-12T08:53:58.863Z,30.33
2023-05-12T08:58:55.736Z,30.75
2023-05-12T09:01:23.979Z,30.83
2023-05-12T09:03:51.729Z,30.29
2023-05-12T09:06:18.208Z,29.04
2023-05-12T09:08:44.837Z,29.62
2023-05-12T09:11:14.088Z,29.49
2023-05-12T09:13:59.494Z,29.14
2023-05-12T09:16:38.854Z,28.62
2023-05-12T09:19:06.994Z,28.77
2023-05-12T09:21:33.952Z,28.87
2023-05-12T09:24:06.566Z,28.69
2023-05-12T09:26:50.710Z,28.73
2023-05-12T09:29:30.654Z,28.23
2023-05-12T09:32:03.064Z,28.24
2023-05-12T09:34:34.834Z,28.05
2023-05-12T09:37:04.381Z,28.24
2023-05-12T09:39:30.902Z,27.93
2023-05-12T09:41:57.332Z,27.92
2023-05-12T09:44:24.454Z,28.57
2023-05-12T09:46:51.044Z,28.12
2023-05-12T09:49:19.657Z,28.25
2023-05-12T09:51:46.608Z,28.28
2023-05-12T09:54:13.336Z,28.18
2023-05-12T09:56:40.483Z,28.15
2023-05-12T09:59:10.400Z,28.25
2023-05-12T10:01:37.335Z,27.62
2023-05-12T10:04:06.977Z,27.83
2023-05-12T10:06:40.313Z,27.90
2023-05-12T10:09:18.602Z,27.78
2023-05-12T10:11:46.478Z,27.66
2023-05-12T10:14:13.199Z,27.94
2023-05-12T10:16:40.791Z,27.87
2023-05-12T10:19:07.921Z,27.89
2023-05-12T10:21:36.043Z,27.68
2023-05-12T10:24:03.105Z,27.70
2023-05-12T10:26:31.730Z,27.60
2023-05-12T10:28:58.683Z,28.01
2023-05-12T10:31:27.148Z,27.67
2023-05-12T10:34:01.212Z,27.54
2023-05-12T10:36:28.098Z,27.57
2023-05-12T10:38:55.840Z,27.70
2023-05-12T10:41:30.193Z,27.88
2023-05-12T10:43:56.645Z,28.62
2023-05-12T10:46:25.625Z,28.70
2023-05-12T10:48:54.863Z,28.33
2023-05-12T10:51:25.746Z,28.00
2023-05-12T10:54:00.374Z,27.92
2023-05-12T10:56:30.552Z,28.07
2023-05-12T10:59:24.130Z,27.82
2023-05-12T11:02:00.309Z,28.24
2023-05-12T11:04:50.868Z,28.10
2023-05-12T11:07:22.584Z,28.50
2023-05-12T11:12:18.804Z,27.96
2023-05-12T11:14:46.223Z,28.43
2023-05-12T11:17:13.507Z,28.21
2023-05-12T11:19:45.762Z,27.86
2023-05-12T11:22:12.279Z,27.33
2023-05-12T11:24:41.617Z,27.99
2023-05-12T11:27:12.971Z,28.07
2023-05-12T11:29:41.655Z,28.21
2023-05-12T11:32:12.501Z,28.29
2023-05-12T11:34:38.882Z,28.23
2023-05-12T11:37:06.046Z,28.38
2023-05-12T11:39:32.518Z,28.14
2023-05-12T11:42:12.023Z,28.23
2023-05-12T11:44:49.700Z,28.15
2023-05-12T11:47:18.351Z,28.58
2023-05-12T11:49:52.580Z,28.04
2023-05-12T11:52:20.850Z,27.92
2023-05-12T11:54:51.609Z,27.81
2023-05-12T11:57:32.178Z,27.46
2023-05-12T12:00:04.004Z,27.41
2023-05-12T12:02:32.828Z,27.81
2023-05-12T12:04:59.823Z,28.00
2023-05-12T12:07:30.711Z,27.61
2023-05-12T12:09:57.434Z,27.39
2023-05-12T12:12:23.888Z,27.25
2023-05-12T12:14:50.165Z,26.98
2023-05-12T12:17:16.396Z,26.94
2023-05-12T12:19:42.670Z,27.10
2023-05-12T12:22:08.974Z,26.98
2023-05-12T12:24:35.400Z,26.77
2023-05-12T12:27:01.668Z,26.51
2023-05-12T12:29:28.130Z,26.73
2023-05-12T12:31:55.131Z,26.88
2023-05-12T12:34:21.950Z,26.18
2023-05-12T12:36:48.327Z,25.92
2023-05-12T12:39:14.688Z,26.19
2023-05-12T12:41:41.605Z,26.37
2023-05-12T12:44:08.906Z,26.32
2023-05-12T12:46:35.663Z,26.17
2023-05-12T12:49:02.004Z,25.72
2023-05-12T12:51:42.132Z,26.50
2023-05-12T12:54:11.676Z,26.95
2023-05-12T12:56:38.642Z,27.16
2023-05-12T12:59:05.634Z,26.23
2023-05-12T13:01:33.361Z,25.90
2023-05-12T13:03:59.807Z,25.82
2023-05-12T13:06:26.894Z,26.07
2023-05-12T13:08:55.747Z,26.19
2023-05-12T13:11:22.175Z,25.94
2023-05-12T13:13:48.509Z,26.02
2023-05-12T13:16:15.101Z,25.68
2023-05-12T13:18:41.654Z,25.23
2023-05-12T13:21:08.148Z,25.20
2023-05-12T13:23:34.658Z,25.49
2023-05-12T13:26:00.986Z,25.91
2023-05-12T13:28:28.226Z,25.57
2023-05-12T13:30:54.648Z,25.79
2023-05-12T13:33:21.092Z,25.56
2023-05-12T13:35:47.423Z,25.56
2023-05-12T13:38:13.845Z,24.86
2023-05-12T13:40:40.803Z,25.24
2023-05-12T13:43:07.748Z,25.62
2023-05-12T13:45:34.039Z,25.91
2023-05-12T13:48:00.525Z,25.47
2023-05-12T13:50:27.250Z,25.36
2023-05-12T13:52:53.553Z,25.35
2023-05-12T13:55:21.554Z,25.66
2023-05-12T13:57:48.632Z,25.51
2023-05-12T14:00:16.476Z,25.78
2023-05-12T14:02:45.346Z,25.49
2023-05-12T14:05:11.825Z,25.56
2023-05-12T14:07:38.177Z,25.62
2023-05-12T14:10:04.971Z,25.81
2023-05-12T14:12:31.519Z,25.82
2023-05-12T14:15:07.350Z,25.74
2023-05-12T14:17:45.651Z,26.12
2023-05-12T14:20:12.152Z,26.28
2023-05-12T14:22:38.732Z,26.35
2023-05-12T14:25:05.583Z,26.21
2023-05-12T14:27:31.952Z,26.15
2023-05-12T14:29:58.295Z,26.05
2023-05-12T14:32:24.741Z,26.24
2023-05-12T14:34:51.126Z,26.23
2023-05-12T14:37:17.399Z,26.23
2023-05-12T14:39:43.812Z,26.24
2023-05-12T14:42:10.169Z,26.59
2023-05-12T14:44:36.813Z,26.57
2023-05-12T14:47:03.076Z,27.01
2023-05-12T14:49:29.411Z,27.44
2023-05-12T14:51:55.676Z,27.46
2023-05-12T14:54:25.281Z,26.74
2023-05-12T14:56:52.648Z,26.76
2023-05-12T14:59:19.143Z,26.93
2023-05-12T15:01:45.816Z,27.12
2023-05-12T15:04:12.547Z,27.19
2023-05-12T15:06:39.210Z,27.11
2023-05-12T15:09:07.903Z,27.19
2023-05-12T15:11:36.115Z,27.17
2023-05-12T15:14:03.577Z,26.93
2023-05-12T15:16:30.226Z,27.01
2023-05-12T15:18:56.617Z,27.02
2023-05-12T15:21:22.990Z,26.97
2023-05-12T15:23:49.319Z,27.08
2023-05-12T15:26:32.023Z,27.26
2023-05-12T15:28:59.810Z,27.27
2023-05-12T15:31:28.570Z,27.32
2023-05-12T15:33:56.143Z,27.27
2023-05-12T15:36:22.730Z,27.26
2023-05-12T15:38:49.090Z,27.35
2023-05-12T15:41:15.414Z,27.29
2023-05-12T15:43:41.748Z,27.60
2023-05-12T15:46:09.903Z,27.76
2023-05-12T15:48:36.250Z,27.98
2023-05-12T15:51:03.438Z,27.96
2023-05-12T15:53:30.302Z,27.96
2023-05-12T15:56:04.005Z,27.89
2023-05-12T16:04:44.597Z,28.56
2023-05-12T16:07:12.552Z,28.49
2023-05-12T16:09:38.899Z,28.54
2023-05-12T16:12:07.429Z,28.79
2023-05-12T16:14:35.547Z,28.86
2023-05-12T16:17:02.698Z,28.96
2023-05-12T16:19:29.084Z,29.18
2023-05-12T16:21:57.700Z,28.95
2023-05-12T16:24:27.529Z,29.24
2023-05-12T16:26:58.149Z,29.51
2023-05-12T16:29:24.603Z,29.28
2023-05-12T16:31:51.350Z,29.09
2023-05-12T16:34:19.087Z,28.88
2023-05-12T16:36:45.526Z,29.07
2023-05-12T16:39:12.238Z,29.37
2023-05-12T16:41:38.728Z,29.22
2023-05-12T16:44:08.014Z,29.64
2023-05-12T16:46:35.071Z,29.63
2023-05-12T16:49:02.210Z,29.43
2023-05-12T16:51:32.305Z,29.50
2023-05-12T16:53:58.651Z,29.85
2023-05-12T16:56:26.733Z,29.85
2023-05-12T16:58:53.026Z,29.75
2023-05-12T17:01:19.460Z,29.95
2023-05-12T17:03:45.956Z,30.05
2023-05-12T17:06:12.491Z,30.56
2023-05-12T17:08:38.873Z,30.48
2023-05-12T17:11:05.439Z,30.41
2023-05-12T17:13:37.592Z,30.48
2023-05-12T17:16:04.101Z,30.61
2023-05-12T17:18:30.678Z,30.78
2023-05-12T17:20:57.811Z,30.99
2023-05-12T17:23:26.005Z,31.14
2023-05-12T17:25:52.831Z,31.27
2023-05-12T17:28:20.337Z,31.67
2023-05-12T17:30:47.312Z,31.77
2023-05-12T17:33:14.820Z,31.90
2023-05-12T17:35:41.166Z,31.95
2023-05-12T17:38:07.694Z,31.83
2023-05-12T17:40:34.000Z,31.98
2023-05-12T17:43:00.361Z,32.10
2023-05-12T17:45:27.695Z,31.99
2023-05-12T17:47:56.435Z,32.33
2023-05-12T17:50:23.014Z,32.56
2023-05-12T17:52:49.448Z,32.59
2023-05-12T17:55:16.696Z,32.56
2023-05-12T17:57:43.116Z,32.95
2023-05-12T18:00:10.080Z,33.44
2023-05-12T18:02:44.117Z,33.91
2023-05-12T18:05:10.504Z,34.29
2023-05-12T18:07:36.860Z,34.61
2023-05-12T18:10:07.504Z,35.10
2023-05-12T18:12:33.994Z,35.42
2023-05-12T18:15:00.352Z,36.14
2023-05-12T18:17:26.995Z,36.49
2023-05-12T18:19:53.608Z,36.66
2023-05-12T18:22:19.917Z,37.14
2023-05-12T18:24:47.161Z,37.46
2023-05-12T18:27:13.548Z,37.70
2023-05-12T18:29:39.906Z,38.19
2023-05-12T18:32:06.240Z,38.65
2023-05-12T18:34:32.608Z,38.94
2023-05-12T18:37:02.234Z,39.17
2023-05-12T18:39:28.528Z,39.49
2023-05-12T18:41:54.907Z,39.56
2023-05-12T18:44:21.502Z,40.11
2023-05-12T18:46:47.870Z,40.47
2023-05-12T18:49:14.282Z,40.69
2023-05-12T18:51:40.598Z,40.92
2023-05-12T18:54:06.870Z,40.73
2023-05-12T18:56:33.639Z,40.86
2023-05-12T18:59:00.455Z,41.07
2023-05-12T19:01:27.217Z,41.37
2023-05-12T19:03:53.693Z,41.40
2023-05-12T19:06:20.807Z,41.56
2023-05-12T19:08:47.130Z,41.53
2023-05-12T19:11:13.407Z,42.04
2023-05-12T19:13:42.712Z,42.49
2023-05-12T19:16:09.105Z,42.52
2023-05-12T19:18:35.482Z,42.99
2023-05-12T19:21:02.064Z,43.03
2023-05-12T19:23:29.912Z,43.31
2023-05-12T19:25:56.194Z,43.84
2023-05-12T19:28:22.603Z,43.84
2023-05-12T19:30:48.930Z,43.85
2023-05-12T19:33:17.223Z,44.22
2023-05-12T19:35:43.807Z,44.57
2023-05-12T19:38:10.028Z,44.89
2023-05-12T19:40:36.315Z,45.23
2023-05-12T19:43:04.370Z,45.67
2023-05-12T19:45:30.690Z,45.87
2023-05-12T19:47:57.025Z,46.34
2023-05-12T19:50:23.326Z,46.57
2023-05-12T19:52:49.966Z,46.85
2023-05-12T19:55:16.356Z,47.09
2023-05-12T19:57:43.277Z,47.50
2023-05-12T20:00:10.221Z,47.42
2023-05-12T20:02:40.016Z,47.44
2023-05-12T20:05:06.935Z,47.49
2023-05-12T20:07:33.182Z,47.58
2023-05-12T20:10:00.551Z,47.48
2023-05-12T20:12:26.974Z,47.71
2023-05-12T20:14:53.201Z,47.66
2023-05-12T20:17:19.604Z,48.25
2023-05-12T20:19:45.883Z,48.23
2023-05-12T20:22:12.263Z,48.37
2023-05-12T20:24:38.550Z,48.79
2023-05-12T20:27:04.946Z,49.42
2023-05-12T20:29:31.805Z,49.50
2023-05-12T20:31:58.105Z,49.61
2023-05-12T20:34:24.382Z,49.94
2023-05-12T20:36:50.666Z,50.11
2023-05-12T20:39:17.575Z,50.13
2023-05-12T20:41:43.873Z,50.16
2023-05-12T20:44:10.230Z,50.27
2023-05-12T20:46:38.455Z,50.56
2023-05-12T20:49:05.259Z,50.60
2023-05-12T20:51:31.783Z,50.68
2023-05-12T20:53:58.096Z,50.82
2023-05-12T20:56:25.773Z,50.72
2023-05-12T20:58:52.302Z,50.77
2023-05-12T21:01:18.734Z,51.14
2023-05-12T21:03:45.356Z,51.36
2023-05-12T21:06:11.671Z,51.38
2023-05-12T21:08:38.109Z,51.64
2023-05-12T21:11:12.993Z,51.62
2023-05-12T21:13:39.330Z,51.79
2023-05-12T21:16:05.730Z,52.16
2023-05-12T21:18:32.442Z,52.12
2023-05-12T21:20:58.732Z,52.37
2023-05-12T21:23:25.381Z,52.24
2023-05-12T21:25:52.630Z,52.60
2023-05-12T21:28:18.985Z,52.20
2023-05-12T21:30:45.347Z,52.85
2023-05-12T21:33:11.690Z,52.96
2023-05-12T21:35:38.126Z,53.35
2023-05-12T21:38:06.557Z,53.59
2023-05-12T21:40:32.875Z,53.76
2023-05-12T21:42:59.355Z,54.06
2023-05-12T21:45:25.771Z,54.26
2023-05-12T21:47:52.597Z,54.25
2023-05-12T21:50:20.996Z,54.72
2023-05-12T21:52:50.119Z,54.90
2023-05-12T21:55:23.320Z,55.04
2023-05-12T21:57:49.646Z,55.55
2023-05-12T22:00:19.302Z,55.86
2023-05-12T22:02:46.935Z,55.97
2023-05-12T22:05:14.088Z,56.17
2023-05-12T22:07:40.587Z,56.40
2023-05-12T22:10:07.085Z,56.83
2023-05-12T22:12:33.541Z,56.95
2023-05-12T22:14:59.892Z,57.24
2023-05-12T22:17:26.241Z,57.72
2023-05-12T22:19:52.671Z,57.75
2023-05-12T22:22:19.043Z,58.11
2023-05-12T22:24:45.435Z,58.10
2023-05-12T22:27:11.906Z,58.31
2023-05-12T22:29:38.239Z,58.90
2023-05-12T22:32:04.795Z,59.25
2023-05-12T22:34:31.158Z,59.67
2023-05-12T22:36:57.466Z,59.73
2023-05-12T22:39:23.825Z,60.05
2023-05-12T22:41:50.363Z,60.67
2023-05-12T22:44:16.595Z,61.01
2023-05-12T22:46:42.960Z,61.21
2023-05-12T22:49:09.231Z,61.73
2023-05-12T22:51:35.554Z,61.73
2023-05-12T22:54:01.914Z,62.24
2023-05-12T22:56:28.295Z,62.77
2023-05-12T22:58:54.637Z,63.13
2023-05-12T23:01:20.957Z,63.41
2023-05-12T23:03:47.316Z,63.71
2023-05-12T23:06:13.645Z,64.26
2023-05-12T23:08:39.915Z,64.72
2023-05-12T23:11:06.327Z,65.40
2023-05-12T23:13:32.607Z,66.01
2023-05-12T23:15:58.904Z,66.24
2023-05-12T23:18:25.241Z,66.57
2023-05-12T23:20:51.561Z,67.66
2023-05-12T23:23:17.902Z,67.92
2023-05-12T23:25:46.247Z,68.65
2023-05-12T23:28:12.513Z,69.36
2023-05-12T23:30:38.834Z,69.79
2023-05-12T23:33:05.297Z,70.24
2023-05-12T23:35:31.700Z,70.30
2023-05-12T23:37:58.213Z,70.18
2023-05-12T23:40:24.622Z,70.65
2023-05-12T23:42:50.912Z,71.46
2023-05-12T23:45:17.643Z,71.88
2023-05-12T23:47:43.990Z,71.98
2023-05-12T23:50:10.768Z,71.81
2023-05-12T23:52:37.100Z,72.00
2023-05-12T23:55:03.632Z,72.05
2023-05-12T23:57:29.911Z,72.47
2023-05-12T23:59:56.152Z,72.33
